SWR286A LSZH-LHBP
Flight info
| Callsign | SWR286A |
|---|---|
| Flight time | N/A |
| Altitude | 35000 |
| Route | DEGES2X DEGES Z2 TUNUM Z209 BIRGI DCT SETAL DCT GOTAR DCT SIRDU DCT OGVUN DCT VAJDI VAJDI2T |
| Aircraft | A321/M-SDE3FGHIRWY/LB1 |
Departure
| Time | 2026-05-05 09:57 |
|---|---|
| Airport | Zürich Airport (LSZH) |
Arrival
| Time | N/A |
|---|---|
| Airport | Budapest Liszt Ferenc International Airport (LHBP) |
| Time | Latitude | Longitude | Altitude | Speed | Heading |
|---|---|---|---|---|---|
| 2026-05-05 09:02 | 47.45344 | 8.55754 | 1397 ft | 0 kts | 6° |
| 2026-05-05 09:46 | 47.45334 | 8.55752 | 1397 ft | 3 kts | 7° |
| 2026-05-05 09:46 | 47.45314 | 8.55748 | 1399 ft | 3 kts | 7° |
| 2026-05-05 09:47 | 47.45294 | 8.55745 | 1406 ft | 3 kts | 2° |
| 2026-05-05 09:47 | 47.45275 | 8.55746 | 1404 ft | 3 kts | 336° |
| 2026-05-05 09:47 | 47.45264 | 8.55754 | 1399 ft | 2 kts | 282° |
| 2026-05-05 09:47 | 47.45264 | 8.55758 | 1398 ft | 0 kts | 276° |
| 2026-05-05 09:51 | 47.45264 | 8.55754 | 1399 ft | 2 kts | 275° |
| 2026-05-05 09:51 | 47.45266 | 8.55719 | 1401 ft | 5 kts | 275° |
| 2026-05-05 09:51 | 47.45271 | 8.55645 | 1397 ft | 9 kts | 275° |
| 2026-05-05 09:52 | 47.45292 | 8.55568 | 1403 ft | 7 kts | 319° |
| 2026-05-05 09:52 | 47.45347 | 8.55527 | 1403 ft | 13 kts | 335° |
| 2026-05-05 09:52 | 47.45439 | 8.55465 | 1397 ft | 15 kts | 335° |
| 2026-05-05 09:52 | 47.45529 | 8.55403 | 1407 ft | 14 kts | 335° |
| 2026-05-05 09:53 | 47.45615 | 8.55345 | 1402 ft | 13 kts | 336° |
| 2026-05-05 09:53 | 47.45669 | 8.55415 | 1399 ft | 15 kts | 91° |
| 2026-05-05 09:53 | 47.45657 | 8.55587 | 1397 ft | 17 kts | 96° |
| 2026-05-05 09:53 | 47.45645 | 8.55760 | 1400 ft | 17 kts | 96° |
| 2026-05-05 09:54 | 47.45633 | 8.55934 | 1405 ft | 18 kts | 96° |
| 2026-05-05 09:54 | 47.45618 | 8.56135 | 1405 ft | 20 kts | 96° |
| 2026-05-05 09:54 | 47.45602 | 8.56353 | 1406 ft | 24 kts | 96° |
| 2026-05-05 09:54 | 47.45585 | 8.56606 | 1397 ft | 25 kts | 96° |
| 2026-05-05 09:55 | 47.45568 | 8.56831 | 1397 ft | 20 kts | 96° |
| 2026-05-05 09:55 | 47.45572 | 8.57000 | 1398 ft | 9 kts | 47° |
| 2026-05-05 09:55 | 47.45611 | 8.57022 | 1399 ft | 8 kts | 16° |
| 2026-05-05 09:55 | 47.45664 | 8.57014 | 1404 ft | 8 kts | 314° |
| 2026-05-05 09:56 | 47.45667 | 8.56954 | 1398 ft | 5 kts | 268° |
| 2026-05-05 09:56 | 47.45676 | 8.56839 | 1402 ft | 31 kts | 276° |
| 2026-05-05 09:56 | 47.45686 | 8.56683 | 1395 ft | 58 kts | 275° |
| 2026-05-05 09:57 | 47.46252 | 8.47733 | 3566 ft | 192 kts | 246° |
| 2026-05-05 09:58 | 47.43457 | 8.42267 | 3995 ft | 225 kts | 254° |
| 2026-05-05 09:58 | 47.43043 | 8.40032 | 4084 ft | 229 kts | 255° |
| 2026-05-05 09:59 | 47.42472 | 8.37850 | 4680 ft | 228 kts | 233° |
| 2026-05-05 09:59 | 47.41242 | 8.36433 | 5188 ft | 227 kts | 198° |
| 2026-05-05 09:59 | 47.39682 | 8.36264 | 5740 ft | 226 kts | 166° |
| 2026-05-05 09:59 | 47.38318 | 8.37354 | 6301 ft | 226 kts | 134° |
| 2026-05-05 10:00 | 47.37572 | 8.39385 | 6813 ft | 230 kts | 102° |
| 2026-05-05 10:00 | 47.37708 | 8.41708 | 7330 ft | 237 kts | 68° |
| 2026-05-05 10:00 | 47.38756 | 8.43621 | 7853 ft | 244 kts | 33° |
| 2026-05-05 10:00 | 47.40233 | 8.44844 | 8393 ft | 248 kts | 30° |
| 2026-05-05 10:01 | 47.41619 | 8.46367 | 8897 ft | 253 kts | 49° |
| 2026-05-05 10:01 | 47.42744 | 8.48495 | 9054 ft | 274 kts | 56° |
| 2026-05-05 10:01 | 47.43907 | 8.50858 | 9337 ft | 291 kts | 56° |
| 2026-05-05 10:01 | 47.44959 | 8.53437 | 9896 ft | 295 kts | 69° |
| 2026-05-05 10:02 | 47.45650 | 8.56373 | 10102 ft | 312 kts | 81° |
| 2026-05-05 10:02 | 47.45902 | 8.59638 | 10289 ft | 327 kts | 90° |
| 2026-05-05 10:02 | 47.46003 | 8.63040 | 10768 ft | 335 kts | 90° |
| 2026-05-05 10:02 | 47.46119 | 8.66497 | 11345 ft | 339 kts | 90° |
| 2026-05-05 10:03 | 47.46245 | 8.69996 | 11945 ft | 343 kts | 90° |
| 2026-05-05 10:03 | 47.46380 | 8.73543 | 12534 ft | 348 kts | 90° |
| 2026-05-05 10:03 | 47.46516 | 8.77124 | 13150 ft | 351 kts | 91° |
| 2026-05-05 10:03 | 47.46637 | 8.80747 | 13757 ft | 354 kts | 94° |
| 2026-05-05 10:04 | 47.46419 | 8.84359 | 14281 ft | 352 kts | 105° |
| 2026-05-05 10:04 | 47.45902 | 8.87899 | 14820 ft | 354 kts | 106° |
| 2026-05-05 10:04 | 47.45377 | 8.91455 | 15384 ft | 356 kts | 106° |
| 2026-05-05 10:04 | 47.44857 | 8.95046 | 15941 ft | 358 kts | 106° |
| 2026-05-05 10:05 | 47.44339 | 8.98653 | 16488 ft | 361 kts | 105° |
| 2026-05-05 10:05 | 47.43819 | 9.02304 | 17044 ft | 364 kts | 105° |
| 2026-05-05 10:05 | 47.43299 | 9.05966 | 17567 ft | 366 kts | 105° |
| 2026-05-05 10:05 | 47.42772 | 9.09653 | 18093 ft | 369 kts | 105° |
| 2026-05-05 10:06 | 47.42238 | 9.13379 | 18560 ft | 371 kts | 105° |
| 2026-05-05 10:06 | 47.41735 | 9.17071 | 19009 ft | 375 kts | 101° |
| 2026-05-05 10:06 | 47.41593 | 9.20945 | 19459 ft | 381 kts | 90° |
| 2026-05-05 10:06 | 47.41952 | 9.24850 | 19906 ft | 388 kts | 80° |
| 2026-05-05 10:07 | 47.42556 | 9.28745 | 20358 ft | 390 kts | 80° |
| 2026-05-05 10:07 | 47.43157 | 9.32671 | 20801 ft | 393 kts | 81° |
| 2026-05-05 10:07 | 47.43757 | 9.36622 | 21241 ft | 396 kts | 81° |
| 2026-05-05 10:07 | 47.44355 | 9.40596 | 21681 ft | 398 kts | 81° |
| 2026-05-05 10:08 | 47.44959 | 9.44606 | 22090 ft | 401 kts | 81° |
| 2026-05-05 10:08 | 47.45563 | 9.48636 | 22513 ft | 403 kts | 81° |
| 2026-05-05 10:08 | 47.46170 | 9.52695 | 22904 ft | 406 kts | 81° |
| 2026-05-05 10:08 | 47.46778 | 9.56791 | 23316 ft | 409 kts | 82° |
| 2026-05-05 10:09 | 47.47119 | 9.60947 | 23652 ft | 408 kts | 91° |
| 2026-05-05 10:09 | 47.47004 | 9.65128 | 23983 ft | 407 kts | 98° |
| 2026-05-05 10:09 | 47.46763 | 9.69310 | 24318 ft | 410 kts | 98° |
| 2026-05-05 10:09 | 47.46530 | 9.73517 | 24634 ft | 412 kts | 98° |
| 2026-05-05 10:10 | 47.46302 | 9.77755 | 24958 ft | 414 kts | 98° |
| 2026-05-05 10:10 | 47.46073 | 9.82008 | 25280 ft | 417 kts | 98° |
| 2026-05-05 10:10 | 47.45842 | 9.86286 | 25596 ft | 419 kts | 98° |
| 2026-05-05 10:10 | 47.45605 | 9.90586 | 25901 ft | 421 kts | 98° |
| 2026-05-05 10:11 | 47.45363 | 9.94901 | 26234 ft | 423 kts | 98° |
| 2026-05-05 10:11 | 47.45116 | 9.99251 | 26559 ft | 425 kts | 98° |
| 2026-05-05 10:11 | 47.44868 | 10.03552 | 26864 ft | 427 kts | 98° |
| 2026-05-05 10:11 | 47.44613 | 10.07935 | 27160 ft | 429 kts | 98° |
| 2026-05-05 10:12 | 47.44355 | 10.12336 | 27466 ft | 431 kts | 98° |
| 2026-05-05 10:12 | 47.44104 | 10.16609 | 27743 ft | 433 kts | 99° |
| 2026-05-05 10:12 | 47.43635 | 10.20998 | 28051 ft | 432 kts | 105° |
| 2026-05-05 10:12 | 47.43042 | 10.25350 | 28301 ft | 434 kts | 105° |
| 2026-05-05 10:13 | 47.42454 | 10.29735 | 28592 ft | 436 kts | 105° |
| 2026-05-05 10:13 | 47.41868 | 10.34132 | 28895 ft | 438 kts | 104° |
| 2026-05-05 10:13 | 47.41276 | 10.38556 | 29187 ft | 440 kts | 105° |
| 2026-05-05 10:13 | 47.40679 | 10.42986 | 29449 ft | 441 kts | 105° |
| 2026-05-05 10:14 | 47.40082 | 10.47382 | 29715 ft | 443 kts | 105° |
| 2026-05-05 10:14 | 47.39474 | 10.51838 | 29948 ft | 444 kts | 105° |
| 2026-05-05 10:14 | 47.38857 | 10.56317 | 30168 ft | 446 kts | 105° |
| 2026-05-05 10:14 | 47.38234 | 10.60814 | 30387 ft | 448 kts | 105° |
| 2026-05-05 10:15 | 47.37606 | 10.65331 | 30614 ft | 450 kts | 105° |
| 2026-05-05 10:15 | 47.37181 | 10.68398 | 30746 ft | 452 kts | 105° |
| 2026-05-05 10:15 | 47.36559 | 10.72879 | 31015 ft | 452 kts | 105° |
| 2026-05-05 10:15 | 47.35926 | 10.77426 | 31307 ft | 452 kts | 105° |
| 2026-05-05 10:16 | 47.35292 | 10.81958 | 31636 ft | 451 kts | 105° |
| 2026-05-05 10:16 | 47.34656 | 10.86483 | 31919 ft | 451 kts | 105° |
| 2026-05-05 10:16 | 47.34019 | 10.91012 | 32220 ft | 451 kts | 106° |
| 2026-05-05 10:16 | 47.33385 | 10.95532 | 32515 ft | 451 kts | 106° |
| 2026-05-05 10:17 | 47.32746 | 11.00064 | 32808 ft | 451 kts | 106° |
| 2026-05-05 10:17 | 47.32101 | 11.04584 | 33104 ft | 451 kts | 106° |
| 2026-05-05 10:17 | 47.31451 | 11.09106 | 33397 ft | 451 kts | 106° |
| 2026-05-05 10:17 | 47.30797 | 11.13647 | 33635 ft | 452 kts | 106° |
| 2026-05-05 10:18 | 47.30143 | 11.18182 | 33915 ft | 453 kts | 106° |
| 2026-05-05 10:18 | 47.29489 | 11.22711 | 34166 ft | 452 kts | 106° |
| 2026-05-05 10:18 | 47.28838 | 11.27237 | 34430 ft | 452 kts | 106° |
| 2026-05-05 10:18 | 47.28188 | 11.31756 | 34655 ft | 451 kts | 105° |
| 2026-05-05 10:19 | 47.27533 | 11.36294 | 34819 ft | 452 kts | 106° |
| 2026-05-05 10:19 | 47.26880 | 11.40791 | 34863 ft | 446 kts | 106° |
| 2026-05-05 10:19 | 47.26084 | 11.49745 | 34869 ft | 447 kts | 91° |
| 2026-05-05 10:20 | 47.26241 | 11.52828 | 34866 ft | 449 kts | 84° |